• Join FlightAware (Why Join?)
  • Login
  • US Flag 
10:32AM EDT


 

Airport Tracker/Info


-or-


 

Live Flight TrackerFlight Track Log ✈ DAL129 ✈ 18-Jun-2012 ✈ KATL - KSEA

Flight Track Log - Related Links

Times and Time Zones

All times are in EDT time to prevent confusion due to time zone crossing. See the DAL129 flight status page for this flight to view local times or setup timezone preferences in your user account.

Time Position Orientation Groundspeed Altitude Reporting Facility
EDT Latitude Longitude Course Direction KTS MPH feet Rate Location/Type
05:05PM 33.6500 -84.3833 73° East 193 222 2,400  Level Atlanta TRACON
05:06PM 33.6667 -84.3167 23° Northeast 243 280 3,600 1,920 Climbing Atlanta TRACON
05:07PM 33.7333 -84.2833 348° North 279 321 5,900 2,520 Climbing Atlanta TRACON
05:08PM 33.8000 -84.3000 273° West 295 339 8,800 1,860 Climbing Atlanta TRACON
05:10PM 33.8100 -84.5314 270° West 326 375 11,900 1,680 Climbing Atlanta Center
05:11PM 33.8094 -84.6589 270° West 376 433 14,000 1,980 Climbing Atlanta Center
05:12PM 33.8086 -84.7914 267° West 389 448 15,900 1,860 Climbing Atlanta Center
05:13PM 33.8036 -84.9264 262° West 408 470 17,800 1,800 Climbing Atlanta Center
05:14PM 33.7878 -85.0636 262° West 408 470 19,500 1,500 Climbing Atlanta Center
05:15PM 33.7722 -85.1883 276° West 413 475 20,800 1,380 Climbing Atlanta Center
05:16PM 33.7853 -85.3311 287° West 421 484 22,300 1,200 Climbing Atlanta Center
05:21PM 33.9697 -86.0578 289° West 458 527 28,000 1,140 Climbing Atlanta Center
05:22PM 34.0131 -86.2067 288° West 466 536 29,200 1,260 Climbing Atlanta Center
05:23PM 34.0542 -86.3556 289° West 466 536 30,600 1,200 Climbing Atlanta Center
05:24PM 34.0953 -86.5022 288° West 466 536 31,600 900 Climbing Atlanta Center
05:26PM 34.1525 -86.7128 289° West 469 540 33,000 900 Climbing Memphis Center
05:27PM 34.1989 -86.8742 288° West 469 540 34,000 480 Climbing Memphis Center
05:28PM 34.2383 -87.0206 289° West 460 529 34,000  Level Memphis Center
05:29PM 34.2750 -87.1475 288° West 460 529 34,000  Level Memphis Center
05:30PM 34.3211 -87.3217 290° West 470 541 34,000  Level Memphis Center
05:31PM 34.3644 -87.4661 287° West 469 540 34,000  Level Memphis Center
05:32PM 34.4033 -87.6183 289° West 474 545 34,000  Level Memphis Center
05:33PM 34.4439 -87.7656 289° West 469 540 34,000  Level Memphis Center
05:34PM 34.4844 -87.9106 287° West 469 540 34,000  Level Memphis Center
05:35PM 34.5228 -88.0606 288° West 464 534 34,000  Level Memphis Center
05:36PM 34.5631 -88.2158 288° West 468 539 34,000  Level Memphis Center
05:37PM 34.6011 -88.3614 288° West 468 539 34,000  Level Memphis Center
05:38PM 34.6322 -88.4792 288° West 468 539 34,000  Level Memphis Center
05:39PM 34.6742 -88.6375 287° West 454 522 34,000  Level Memphis Center
05:40PM 34.7114 -88.7856 288° West 459 528 34,000  Level Memphis Center
05:41PM 34.7508 -88.9342 288° West 459 528 34,000  Level Memphis Center
05:42PM 34.7900 -89.0850 287° West 459 528 34,000  Level Memphis Center
05:43PM 34.8269 -89.2339 288° West 459 528 34,000  Level Memphis Center
05:44PM 34.8678 -89.3878 288° West 474 545 34,000  Level Memphis Center
05:45PM 34.9108 -89.5519 288° West 474 545 34,000  Level Memphis Center
05:46PM 34.9450 -89.6806 287° West 482 555 34,000  Level Memphis Center
05:47PM 34.9897 -89.8578 286° West 493 567 34,000  Level Memphis Center
05:48PM 35.0256 -90.0097 291° West 488 562 34,000  Level Memphis Center
05:49PM 35.0719 -90.1567 291° West 474 545 34,000  Level Memphis Center
05:50PM 35.1200 -90.3064 291° West 474 545 34,000  Level Memphis Center
05:51PM 35.1700 -90.4689 291° West 467 537 34,000  Level Memphis Center
05:52PM 35.2178 -90.6189 291° West 472 543 34,000  Level Memphis Center
05:53PM 35.2633 -90.7639 289° West 467 537 34,000  Level Memphis Center
05:54PM 35.3067 -90.9142 292° West 473 544 34,000  Level Memphis Center
05:55PM 35.3558 -91.0622 288° West 468 539 34,000  Level Memphis Center
05:56PM 35.3925 -91.1975 293° West 463 533 34,000  Level Memphis Center
05:57PM 35.4478 -91.3611 289° West 469 540 34,000  Level Memphis Center
05:58PM 35.4842 -91.4942 290° West 469 540 34,000  Level Memphis Center
05:59PM 35.5306 -91.6481 291° West 469 540 34,000  Level Memphis Center
06:00PM 35.5769 -91.7967 290° West 469 540 34,000  Level Memphis Center
06:01PM 35.6231 -91.9533 291° West 474 545 34,000  Level Memphis Center
06:02PM 35.6689 -92.1025 289° West 474 545 34,000  Level Memphis Center
06:03PM 35.7125 -92.2567 291° West 474 545 34,000  Level Memphis Center
06:04PM 35.7603 -92.4114 290° West 474 545 34,000  Level Memphis Center
06:05PM 35.8056 -92.5633 289° West 474 545 34,000  Level Memphis Center
06:06PM 35.8486 -92.7208 290° West 474 545 34,000  Level Memphis Center
06:07PM 35.8936 -92.8733 290° West 474 545 34,000  Level Memphis Center
06:08PM 35.9442 -93.0467 290° West 474 545 34,000  Level Memphis Center
06:09PM 35.9886 -93.1994 289° West 480 552 34,000  Level Memphis Center
06:10PM 36.0308 -93.3550 290° West 480 552 34,000  Level Memphis Center
06:11PM 36.0750 -93.5081 289° West 480 552 34,000  Level Memphis Center
06:12PM 36.1169 -93.6611 290° West 480 552 34,000  Level Memphis Center
06:13PM 36.1628 -93.8172 289° West 480 552 34,000  Level Memphis Center
06:14PM 36.2064 -93.9733 291° West 480 552 34,000  Level Memphis Center
06:15PM 36.2519 -94.1247 299° West 480 552 34,000  Level Memphis Center
06:16PM 36.3547 -94.3564 300° West 475 547 34,000  Level Kansas City Center
06:17PM 36.4194 -94.4983 300° West 475 547 34,000  Level Kansas City Center
06:18PM 36.4842 -94.6403 299° West 475 547 34,000  Level Kansas City Center
06:19PM 36.5486 -94.7853 299° West 475 547 34,000  Level Kansas City Center
06:20PM 36.6128 -94.9278 299° West 475 547 34,000  Level Kansas City Center
06:21PM 36.6769 -95.0706 299° West 475 547 34,000  Level Kansas City Center
06:22PM 36.7408 -95.2161 298° West 481 554 34,000  Level Kansas City Center
06:23PM 36.8025 -95.3594 299° West 481 554 34,000  Level Kansas City Center
06:24PM 36.8661 -95.5056 299° West 481 554 34,000  Level Kansas City Center
06:25PM 36.9294 -95.6492 298° West 481 554 34,000  Level Kansas City Center
06:26PM 36.9883 -95.7906 299° West 476 548 34,000  Level Kansas City Center
06:27PM 37.0514 -95.9347 298° West 476 548 34,000  Level Kansas City Center
06:28PM 37.1122 -96.0764 298° West 476 548 34,000  Level Kansas City Center
06:29PM 37.1728 -96.2211 299° West 471 542 34,000  Level Kansas City Center
06:30PM 37.2333 -96.3608 297° West 471 542 34,000  Level Kansas City Center
06:31PM 37.2856 -96.4900 298° West 463 533 34,000  Level Kansas City Center
06:32PM 37.3456 -96.6325 299° West 463 533 34,000  Level Kansas City Center
06:33PM 37.4078 -96.7756 297° West 463 533 34,000  Level Kansas City Center
06:34PM 37.4675 -96.9211 299° West 463 533 34,000  Level Kansas City Center
06:35PM 37.5292 -97.0619 297° West 458 527 34,000  Level Kansas City Center
06:36PM 37.5864 -97.2056 298° West 458 527 34,000  Level Kansas City Center
06:37PM 37.6458 -97.3492 297° West 458 527 34,000  Level Kansas City Center
06:38PM 37.7047 -97.4931 299° West 458 527 34,000  Level Kansas City Center
06:39PM 37.7736 -97.6536 298° West 471 542 34,000  Level Kansas City Center
06:40PM 37.8325 -97.7953 298° West 463 533 34,000  Level Kansas City Center
06:41PM 37.8931 -97.9375 298° West 456 525 34,000  Level Kansas City Center
06:42PM 37.9517 -98.0772 298° West 456 525 34,000  Level Kansas City Center
06:43PM 38.0136 -98.2278 299° West 462 532 34,000  Level Kansas City Center
06:44PM 38.0739 -98.3678 299° West 462 532 34,000  Level Kansas City Center
06:45PM 38.1342 -98.5056 299° West 462 532 34,000  Level Kansas City Center
06:46PM 38.1961 -98.6464 298° West 462 532 34,000  Level Kansas City Center
06:47PM 38.2556 -98.7872 298° West 462 532 34,000  Level Kansas City Center
06:48PM 38.3153 -98.9283 298° West 457 526 34,000  Level Kansas City Center
06:49PM 38.3744 -99.0697 299° West 457 526 34,000  Level Kansas City Center
06:50PM 38.4378 -99.2139 299° West 457 526 34,000  Level Kansas City Center
06:51PM 38.4989 -99.3558 298° West 457 526 34,000  Level Kansas City Center
06:53PM 38.6092 -99.6228 305° West 460 529 34,000  Level Denver Center
06:54PM 38.6789 -99.7489 307° West 453 521 34,000  Level Denver Center
06:55PM 38.7514 -99.8725 308° West 456 525 34,000  Level Denver Center
06:56PM 38.8383 -100.0164 311° West 459 528 34,000  Level Denver Center
06:57PM 38.9172 -100.1342 310° West 457 526 34,000  Level Denver Center
06:58PM 39.0067 -100.2719 310° West 455 524 34,000  Level Denver Center
06:59PM 39.0836 -100.3911 310° West 454 522 34,000  Level Denver Center
07:00PM 39.1739 -100.5322 309° West 454 522 34,000  Level Denver Center
07:01PM 39.2519 -100.6547 309° West 457 526 34,000  Level Denver Center
07:02PM 39.3425 -100.7978 310° West 459 528 34,000  Level Denver Center
07:04PM 39.4208 -100.9203 309° West 460 529 34,000  Level Denver Center
07:05PM 39.5125 -101.0653 309° West 464 534 34,000  Level Denver Center
07:06PM 39.5908 -101.1889 309° West 463 533 34,000  Level Denver Center
07:07PM 39.6817 -101.3336 309° West 462 532 34,000  Level Denver Center
07:08PM 39.7597 -101.4583 309° West 463 533 34,000  Level Denver Center
07:09PM 39.8508 -101.6039 309° West 463 533 34,000  Level Denver Center
07:10PM 39.9283 -101.7272 309° West 460 529 34,000  Level Denver Center
07:11PM 40.0053 -101.8536 309° West 462 532 34,000  Level Denver Center
07:12PM 40.0950 -101.9981 309° West 459 528 34,000  Level Denver Center
07:13PM 40.1711 -102.1231 309° West 459 528 34,000  Level Denver Center
07:14PM 40.2594 -102.2669 309° West 455 524 34,000  Level Denver Center
07:15PM 40.3353 -102.3914 309° West 455 524 34,000  Level Denver Center
07:16PM 40.4239 -102.5375 308° West 456 525 34,000  Level Denver Center
07:17PM 40.5006 -102.6658 309° West 455 524 34,000  Level Denver Center
07:18PM 40.5800 -102.7969 308° West 455 524 34,000  Level Denver Center
07:19PM 40.6586 -102.9283 308° West 454 522 34,000  Level Denver Center
07:20PM 40.7369 -103.0592 308° West 453 521 34,000  Level Denver Center
07:21PM 40.8133 -103.1881 308° West 446 513 34,000  Level Denver Center
07:22PM 40.9019 -103.3389 308° West 443 510 34,000  Level Denver Center
07:23PM 40.9772 -103.4672 308° West 440 506 34,000  Level Denver Center
07:24PM 41.0514 -103.5925 308° West 441 507 34,000  Level Denver Center
07:25PM 41.1347 -103.7356 307° West 440 506 34,000  Level Denver Center
07:26PM 41.2061 -103.8603 308° West 442 509 34,000  Level Denver Center
07:27PM 41.2892 -104.0028 307° West 439 505 34,000  Level Denver Center
07:28PM 41.3597 -104.1269 308° West 439 505 34,000  Level Denver Center
07:29PM 41.4311 -104.2511 307° West 440 506 34,000  Level Denver Center
07:30PM 41.5139 -104.3961 307° West 439 505 34,000  Level Denver Center
07:31PM 41.5850 -104.5214 307° West 441 507 34,000  Level Denver Center
07:32PM 41.6669 -104.6664 307° West 438 504 34,000  Level Denver Center
07:33PM 41.7367 -104.7903 307° West 436 502 34,000  Level Denver Center
07:35PM 41.8181 -104.9356 307° West 435 501 34,000  Level Denver Center
07:36PM 41.8869 -105.0594 307° West 434 499 34,000  Level Denver Center
07:37PM 41.9672 -105.2044 307° West 432 497 34,000  Level Denver Center
07:38PM 42.0367 -105.3281 306° West 432 497 34,000  Level Denver Center
07:39PM 42.1158 -105.4750 307° West 432 497 34,000  Level Denver Center
07:40PM 42.1850 -105.5994 307° West 433 498 34,000  Level Denver Center
07:41PM 42.2658 -105.7467 306° West 435 501 34,000  Level Denver Center
07:42PM 42.3336 -105.8722 306° West 433 498 34,000  Level Denver Center
07:43PM 42.4011 -105.9975 306° West 431 496 34,000  Level Denver Center
07:44PM 42.4783 -106.1408 306° West 423 487 34,000  Level Denver Center
07:45PM 42.5436 -106.2633 306° West 419 482 34,000  Level Denver Center
07:46PM 42.6200 -106.4047 306° West 417 480 34,000  Level Denver Center
07:47PM 42.6842 -106.5261 306° West 414 476 34,000  Level Denver Center
07:48PM 42.7600 -106.6694 306° West 417 480 34,000  Level Denver Center
07:49PM 42.8253 -106.7925 305° West 418 481 34,000  Level Denver Center
07:50PM 42.8886 -106.9175 306° West 418 481 34,000  Level Salt Lake Center
07:51PM 42.9594 -107.0514 305° West 415 478 34,000  Level Salt Lake Center
07:52PM 43.0228 -107.1733 304° West 413 475 34,000  Level Salt Lake Center
07:53PM 43.0953 -107.3183 305° West 413 475 34,000  Level Salt Lake Center
07:54PM 43.1575 -107.4386 306° West 408 470 34,000  Level Salt Lake Center
07:55PM 43.2317 -107.5767 305° West 405 466 34,000  Level Salt Lake Center
07:56PM 43.2931 -107.6975 305° West 403 464 34,000  Level Salt Lake Center
07:57PM 43.3628 -107.8367 305° West 398 458 34,000  Level Salt Lake Center
07:58PM 43.4239 -107.9569 305° West 399 459 34,000  Level Salt Lake Center
07:59PM 43.4956 -108.0994 305° West 403 464 34,000  Level Salt Lake Center
08:00PM 43.5578 -108.2242 305° West 408 470 34,000  Level Salt Lake Center
08:01PM 43.6311 -108.3706 304° West 412 474 34,000  Level Salt Lake Center
08:02PM 43.6928 -108.4953 305° West 412 474 34,000  Level Salt Lake Center
08:03PM 43.7644 -108.6389 304° West 407 468 34,000  Level Salt Lake Center
08:04PM 43.8250 -108.7633 304° West 406 467 34,000  Level Salt Lake Center
08:06PM 43.8956 -108.9061 304° West 403 464 34,000  Level Salt Lake Center
08:07PM 43.9550 -109.0289 304° West 401 461 34,000  Level Salt Lake Center
08:08PM 44.0256 -109.1733 304° West 403 464 34,000  Level Salt Lake Center
08:09PM 44.0858 -109.2969 304° West 403 464 34,000  Level Salt Lake Center
08:10PM 44.1450 -109.4208 304° West 402 463 34,000  Level Salt Lake Center
08:11PM 44.2169 -109.5692 304° West 394 453 34,000  Level Salt Lake Center
08:12PM 44.2750 -109.6900 303° West 393 452 34,000  Level Salt Lake Center
08:13PM 44.3408 -109.8303 304° West 389 448 34,000  Level Salt Lake Center
08:14PM 44.3964 -109.9472 303° West 382 440 34,000  Level Salt Lake Center
08:15PM 44.4600 -110.0825 304° West 375 432 34,000  Level Salt Lake Center
08:16PM 44.5153 -110.1994 303° West 376 433 34,000  Level Salt Lake Center
08:17PM 44.5800 -110.3381 302° West 378 435 34,000  Level Salt Lake Center
08:18PM 44.6344 -110.4589 303° West 383 441 34,000  Level Salt Lake Center
08:19PM 44.6986 -110.5981 302° West 382 440 34,000  Level Salt Lake Center
08:20PM 44.7533 -110.7192 303° West 384 442 34,000  Level Salt Lake Center
08:21PM 44.8183 -110.8594 303° West 385 443 34,000  Level Salt Lake Center
08:22PM 44.8728 -110.9775 303° West 381 438 34,000  Level Salt Lake Center
08:23PM 44.9339 -111.1119 303° West 371 427 34,000  Level Salt Lake Center
08:24PM 44.9867 -111.2283 303° West 370 426 34,000  Level Salt Lake Center
08:25PM 45.0489 -111.3664 303° West 373 429 34,000  Level Salt Lake Center
08:26PM 45.1028 -111.4856 302° West 376 433 34,000  Level Salt Lake Center
08:27PM 45.1669 -111.6300 302° West 378 435 34,000  Level Salt Lake Center
08:28PM 45.2250 -111.7606 302° West 385 443 34,000  Level Salt Lake Center
08:29PM 45.2842 -111.8950 302° West 394 453 34,000  Level Salt Lake Center
08:30PM 45.3439 -112.0308 302° West 400 460 34,000  Level Salt Lake Center
08:31PM 45.4033 -112.1672 302° West 403 464 34,000  Level Salt Lake Center
08:32PM 45.4628 -112.3053 302° West 405 466 34,000  Level Salt Lake Center
08:34PM 45.5219 -112.4425 302° West 406 467 34,000  Level Salt Lake Center
08:35PM 45.5919 -112.6039 301° West 400 460 34,000  Level Salt Lake Center
08:36PM 45.6497 -112.7392 301° West 399 459 34,000  Level Salt Lake Center
08:37PM 45.7061 -112.8744 301° West 396 456 34,000  Level Salt Lake Center
08:38PM 45.7644 -113.0128 301° West 402 463 34,000  Level Salt Lake Center
08:39PM 45.8247 -113.1547 301° West 413 475 34,000  Level Salt Lake Center
08:40PM 45.8850 -113.2969 301° West 414 476 34,000  Level Salt Lake Center
08:41PM 45.9558 -113.4700 303° West 417 480 34,000  Level Salt Lake Center
08:42PM 46.0208 -113.6139 300° West 424 488 34,000  Level Salt Lake Center
08:43PM 46.0781 -113.7542 301° West 420 483 34,000  Level Salt Lake Center
08:44PM 46.1383 -113.9000 301° West 422 486 34,000  Level Salt Lake Center
08:45PM 46.1978 -114.0442 300° West 420 483 34,000  Level Salt Lake Center
08:46PM 46.2567 -114.1911 300° West 422 486 34,000  Level Salt Lake Center
08:47PM 46.3261 -114.3636 300° West 417 480 34,000  Level Salt Lake Center
08:48PM 46.3833 -114.5058 299° West 413 475 34,000  Level Salt Lake Center
08:49PM 46.4292 -114.6236 300° West 414 476 34,000  Level Seattle Center
08:50PM 46.4878 -114.7708 300° West 419 482 34,000  Level Seattle Center
08:51PM 46.5467 -114.9178 300° West 421 484 34,000  Level Seattle Center
08:52PM 46.6081 -115.0747 300° West 424 488 34,000  Level Seattle Center
08:53PM 46.6669 -115.2250 300° West 426 490 34,000  Level Seattle Center
08:54PM 46.7353 -115.3989 299° West 430 495 34,000  Level Seattle Center
08:55PM 46.7847 -115.5283 300° West 430 495 34,000  Level Seattle Center
08:56PM 46.8558 -115.7114 299° West 432 497 34,000  Level Seattle Center
08:57PM 46.9139 -115.8642 299° West 432 497 34,000  Level Seattle Center
08:58PM 46.9722 -116.0178 299° West 432 497 34,000  Level Seattle Center
08:59PM 47.0300 -116.1717 299° West 432 497 34,000  Level Seattle Center
09:00PM 47.0883 -116.3244 299° West 431 496 34,000  Level Seattle Center
09:01PM 47.1447 -116.4767 299° West 427 491 34,000  Level Seattle Center
09:02PM 47.2014 -116.6297 299° West 426 490 34,000  Level Seattle Center
09:03PM 47.2586 -116.7831 298° West 427 491 34,000  Level Seattle Center
09:04PM 47.3156 -116.9386 298° West 428 493 34,000  Level Seattle Center
09:05PM 47.3728 -117.0947 298° West 429 494 34,000  Level Seattle Center
09:07PM 47.4869 -117.4111 298° West 430 495 34,000  Level Seattle Center
09:08PM 47.5436 -117.5689 283° West 431 496 34,000  Level Seattle Center
09:09PM 47.5703 -117.7383 281° West 429 494 34,000  Level Seattle Center
09:10PM 47.5922 -117.9075 278° West 421 484 34,000  Level Seattle Center
09:11PM 47.6092 -118.0789 277° West 422 486 34,000  Level Seattle Center
09:12PM 47.6233 -118.2514 277° West 423 487 34,000  Level Seattle Center
09:13PM 47.6414 -118.4614 278° West 427 491 34,000  Level Seattle Center
09:14PM 47.6575 -118.6344 277° West 426 490 34,000 -180 Level Seattle Center
09:15PM 47.6725 -118.8072 277° West 425 489 33,700 -540 Descending Seattle Center
09:16PM 47.6875 -118.9786 277° West 423 487 33,000 -780 Descending Seattle Center
09:17PM 47.7008 -119.1486 276° West 418 481 32,200 -840 Descending Seattle Center
09:18PM 47.7122 -119.3081 278° West 389 448 31,400 -840 Descending Seattle Center
09:19PM 47.7267 -119.4583 277° West 369 425 30,600 -840 Descending Seattle Center
09:20PM 47.7381 -119.6058 277° West 360 414 29,800 -780 Descending Seattle Center
09:21PM 47.7511 -119.7683 277° West 390 449 29,100 -780 Descending Seattle Center
09:22PM 47.7639 -119.9356 276° West 405 466 28,300 -780 Descending Seattle Center
09:24PM 47.7761 -120.0975 276° West 400 460 27,600 -600 Descending Seattle Center
09:25PM 47.7881 -120.2606 276° West 398 458 27,100 -660 Descending Seattle Center
09:26PM 47.8014 -120.4508 276° West 389 448 26,300 -780 Descending Seattle Center
09:27PM 47.8131 -120.6089 276° West 386 444 25,600 -1,440 Descending Seattle Center
09:28PM 47.8242 -120.7653 276° West 382 440 23,400 -2,160 Descending Seattle Center
09:29PM 47.8356 -120.9186 277° West 378 435 21,300 -2,040 Descending Seattle Center
09:30PM 47.8469 -121.0658 275° West 367 422 19,300 -1,920 Descending Seattle Center
09:31PM 47.8553 -121.2097 275° West 357 411 17,500 -1,800 Descending Seattle Center
09:32PM 47.8642 -121.3492 275° West 346 398 15,700 -1,800 Descending Seattle Center
09:33PM 47.8719 -121.4858 276° West 338 389 13,900 -1,680 Descending Seattle Center
09:34PM 47.8806 -121.6181 253° West 329 379 12,400 -960 Descending Seattle Center
09:35PM 47.8528 -121.7511 239° Southwest 299 344 12,000 -720 Descending Seattle Center
09:36PM 47.8128 -121.8497 247° West 286 329 11,000 -1,140 Descending Seattle Center
09:37PM 47.7828 -121.9542 249° West 278 320 9,700 -1,380 Descending Seattle Center
09:38PM 47.7542 -122.0633 249° West 271 312 8,300 -1,440 Descending Seattle Center
09:39PM 47.7297 -122.1569 250° West 266 306 7,000 -1,500 Descending Seattle Center
09:40PM 47.7011 -122.2717 204° Southwest 261 300 5,300 -1,440 Descending Seattle Center
09:41PM 47.6400 -122.3114 179° South 251 289 4,100 -1,260 Descending Seattle Center
09:42PM 47.5842 -122.3103 180° South 219 252 2,900 -1,140 Descending Seattle Center
09:43PM 47.5308 -122.3100 182° South 191 220 1,900 -960 Descending Seattle Center
09:44PM 47.4914 -122.3122 180° South 146 168 1,100 -720 Descending Seattle Center
09:45PM 47.4492 -122.3119 180° South 139 160 400 -600 Descending Seattle Center